Time;durP1;ratioP1;P1;durP2;ratioP2;P2;SDS_P1;SDS_P2;PMS_P1;PMS_P2;Temp;Humidity;BMP_temperature;BMP_pressure;BME280_temperature;BME280_humidity;BME280_pressure;Samples;Min_cycle;Max_cycle;Signal;HPM_P1;HPM_P2
2022/04/29 00:01:08;;;;;;;4.95;1.50;;;;;;;;;;5012731;28;20088;-46
2022/04/29 00:03:34;;;;;;;6.78;2.28;;;;;;;;;;5012983;28;20046;-48
2022/04/29 00:06:01;;;;;;;4.35;1.73;;;;;;;;;;5012938;28;20050;-61
2022/04/29 00:08:34;;;;;;;6.05;1.40;;;;;;;;;;5012859;28;20050;-61
2022/04/29 00:11:00;;;;;;;5.10;1.45;;;;;;;;;;5012930;28;20073;-50
2022/04/29 00:13:27;;;;;;;4.03;1.40;;;;;;;;;;5012723;28;20127;-49
2022/04/29 00:16:00;;;;;;;4.05;1.52;;;;;;;;;;5012730;28;20050;-55
2022/04/29 00:18:27;;;;;;;2.33;1.50;;;;;;;;;;5012710;28;20042;-52
2022/04/29 00:20:53;;;;;;;4.80;1.50;;;;;;;;;;5012548;28;20137;-54
2022/04/29 00:23:19;;;;;;;6.38;1.70;;;;;;;;;;5012930;28;20464;-55
2022/04/29 00:25:46;;;;;;;6.82;1.35;;;;;;;;;;5012780;28;20080;-51
2022/04/29 00:28:12;;;;;;;2.47;1.35;;;;;;;;;;5012622;28;20438;-61
2022/04/29 00:30:41;;;;;;;5.68;1.58;;;;;;;;;;5012557;28;20125;-61
2022/04/29 00:33:07;;;;;;;6.57;1.90;;;;;;;;;;5012647;28;20486;-60
2022/04/29 00:35:34;;;;;;;6.38;1.90;;;;;;;;;;5014792;28;20248;-61
2022/04/29 00:38:03;;;;;;;4.45;1.40;;;;;;;;;;5016464;28;20085;-62
2022/04/29 00:40:30;;;;;;;7.95;1.98;;;;;;;;;;5016535;28;20089;-60
2022/04/29 00:42:57;;;;;;;13.82;2.35;;;;;;;;;;5016610;28;20104;-51
2022/04/29 00:45:30;;;;;;;7.80;1.60;;;;;;;;;;5016473;28;20050;-58
2022/04/29 00:47:57;;;;;;;4.30;2.50;;;;;;;;;;5016326;28;20444;-46
2022/04/29 00:50:25;;;;;;;4.43;2.28;;;;;;;;;;5016233;28;20132;-45
2022/04/29 00:52:59;;;;;;;4.82;2.50;;;;;;;;;;5016230;28;20077;-45
2022/04/29 00:55:26;;;;;;;10.27;2.10;;;;;;;;;;5016259;28;20049;-46
2022/04/29 00:57:55;;;;;;;7.03;2.25;;;;;;;;;;5015795;28;20093;-45
2022/04/29 01:00:22;;;;;;;9.38;2.40;;;;;;;;;;5016171;28;20133;-45
2022/04/29 01:02:50;;;;;;;8.43;2.00;;;;;;;;;;5016134;28;20104;-53
2022/04/29 01:05:18;;;;;;;3.10;1.80;;;;;;;;;;5016033;28;20289;-54
2022/04/29 01:07:45;;;;;;;7.13;2.35;;;;;;;;;;5016102;28;20416;-49
2022/04/29 01:10:12;;;;;;;7.00;2.80;;;;;;;;;;5016058;28;20492;-52
2022/04/29 01:12:40;;;;;;;8.65;2.03;;;;;;;;;;5015888;28;20077;-49
2022/04/29 01:15:14;;;;;;;8.50;2.13;;;;;;;;;;5015849;28;20112;-52
2022/04/29 01:17:43;;;;;;;10.15;2.40;;;;;;;;;;5015713;28;20089;-53
2022/04/29 01:20:11;;;;;;;6.80;1.92;;;;;;;;;;5015695;28;20088;-49
2022/04/29 01:22:44;;;;;;;7.82;2.17;;;;;;;;;;5015705;28;20579;-45
2022/04/29 01:25:11;;;;;;;9.95;2.10;;;;;;;;;;5015742;28;20085;-45
2022/04/29 01:27:38;;;;;;;3.37;1.67;;;;;;;;;;5015745;28;20105;-45
2022/04/29 01:30:13;;;;;;;9.00;2.30;;;;;;;;;;5015482;28;20726;-46
2022/04/29 01:32:40;;;;;;;7.22;2.20;;;;;;;;;;5015453;28;20128;-45
2022/04/29 01:35:08;;;;;;;8.10;2.50;;;;;;;;;;5015440;28;20082;-46
2022/04/29 01:37:34;;;;;;;;;;;;;;;;;;5015835;28;20453;-49
2022/04/29 01:40:01;;;;;;;6.40;2.38;;;;;;;;;;5015509;28;19975;-58
2022/04/29 01:42:27;;;;;;;10.80;2.78;;;;;;;;;;5015265;28;20077;-51
2022/04/29 01:44:54;;;;;;;9.38;2.10;;;;;;;;;;5015253;28;20485;-50
2022/04/29 01:47:20;;;;;;;8.98;2.17;;;;;;;;;;5014884;28;20129;-52
2022/04/29 01:49:47;;;;;;;5.50;2.45;;;;;;;;;;5015212;28;20584;-49
2022/04/29 01:52:20;;;;;;;8.02;2.50;;;;;;;;;;5015071;28;20125;-56
2022/04/29 01:54:46;;;;;;;7.53;2.30;;;;;;;;;;5014979;28;20141;-55
2022/04/29 01:57:13;;;;;;;11.18;2.53;;;;;;;;;;5015098;28;20497;-45
2022/04/29 01:59:53;;;;;;;17.73;4.13;;;;;;;;;;5007952;28;20588;-54
2022/04/29 02:02:21;;;;;;;22.30;5.90;;;;;;;;;;5014927;28;20112;-57
2022/04/29 02:04:54;;;;;;;23.02;4.70;;;;;;;;;;5014973;28;20054;-56
2022/04/29 02:07:21;;;;;;;31.35;5.90;;;;;;;;;;5014984;28;20564;-56
2022/04/29 02:09:47;;;;;;;39.88;6.25;;;;;;;;;;5014825;28;20132;-57
2022/04/29 02:12:20;;;;;;;52.30;6.18;;;;;;;;;;5014736;28;20124;-56
2022/04/29 02:14:47;;;;;;;53.10;7.63;;;;;;;;;;5014726;28;20045;-59
2022/04/29 02:17:14;;;;;;;63.42;9.10;;;;;;;;;;5014738;28;20138;-62
2022/04/29 02:19:42;;;;;;;92.93;10.50;;;;;;;;;;5014634;28;20088;-58
2022/04/29 02:22:09;;;;;;;95.80;9.68;;;;;;;;;;5014495;28;20470;-58
2022/04/29 02:24:36;;;;;;;115.03;11.48;;;;;;;;;;5014571;28;20140;-57
2022/04/29 02:27:03;;;;;;;157.13;12.87;;;;;;;;;;5014624;28;20085;-58
2022/04/29 02:29:30;;;;;;;76.68;12.00;;;;;;;;;;5014467;28;20211;-58
2022/04/29 02:31:56;;;;;;;89.38;12.55;;;;;;;;;;5014510;28;20096;-58
2022/04/29 02:34:29;;;;;;;86.55;12.30;;;;;;;;;;5014531;28;20077;-53
2022/04/29 02:36:56;;;;;;;60.17;10.07;;;;;;;;;;5014316;28;20108;-58
2022/04/29 02:39:22;;;;;;;70.13;10.13;;;;;;;;;;5014281;28;20103;-59
2022/04/29 02:41:55;;;;;;;99.78;14.45;;;;;;;;;;5014314;28;20093;-59
2022/04/29 02:44:28;;;;;;;95.82;13.23;;;;;;;;;;5014207;28;20145;-59
2022/04/29 02:47:06;;;;;;;118.90;12.40;;;;;;;;;;5014125;28;20171;-58
2022/04/29 02:49:41;;;;;;;133.88;13.30;;;;;;;;;;5014048;28;20085;-59
2022/04/29 02:52:09;;;;;;;116.38;11.13;;;;;;;;;;5013949;28;20050;-58
2022/04/29 02:54:36;;;;;;;107.80;12.40;;;;;;;;;;5014044;28;20074;-48
2022/04/29 02:57:09;;;;;;;125.32;14.35;;;;;;;;;;5013234;28;20163;-50
2022/04/29 02:59:43;;;;;;;139.50;14.45;;;;;;;;;;5015039;28;20441;-51
2022/04/29 03:02:16;;;;;;;194.57;17.75;;;;;;;;;;5013674;28;20089;-53
2022/04/29 03:04:43;;;;;;;166.75;17.33;;;;;;;;;;5013839;28;20063;-51
2022/04/29 03:07:09;;;;;;;60.38;11.75;;;;;;;;;;5013605;28;20129;-49
2022/04/29 03:09:42;;;;;;;95.80;13.98;;;;;;;;;;5013722;28;20054;-45
2022/04/29 03:12:12;;;;;;;273.77;20.42;;;;;;;;;;5013757;28;20041;-53
2022/04/29 03:14:38;;;;;;;95.65;14.98;;;;;;;;;;5013609;28;20045;-55
2022/04/29 03:17:05;;;;;;;48.58;9.65;;;;;;;;;;5013539;28;20449;-59
2022/04/29 03:19:31;;;;;;;116.63;14.38;;;;;;;;;;5013562;28;20136;-55
2022/04/29 03:21:57;;;;;;;105.22;16.30;;;;;;;;;;5013443;28;20085;-59
2022/04/29 03:24:31;;;;;;;59.50;10.15;;;;;;;;;;5013475;28;20556;-57
2022/04/29 03:26:58;;;;;;;85.82;11.57;;;;;;;;;;5013454;28;20113;-58
2022/04/29 03:29:24;;;;;;;330.83;20.30;;;;;;;;;;5013473;28;20077;-47
2022/04/29 03:31:57;;;;;;;97.30;11.90;;;;;;;;;;5013297;28;20129;-55
2022/04/29 03:34:24;;;;;;;88.38;12.10;;;;;;;;;;5013381;28;20104;-57
2022/04/29 03:36:51;;;;;;;126.53;12.68;;;;;;;;;;5012984;28;20085;-57
2022/04/29 03:39:18;;;;;;;128.10;12.45;;;;;;;;;;5013320;28;20124;-57
2022/04/29 03:41:45;;;;;;;167.95;14.90;;;;;;;;;;5013257;28;20049;-56
2022/04/29 03:44:12;;;;;;;188.35;15.50;;;;;;;;;;5013237;28;20096;-58
2022/04/29 03:46:44;;;;;;;123.07;13.15;;;;;;;;;;5013241;28;20057;-50
2022/04/29 03:52:04;;;;;;;66.50;9.75;;;;;;;;;;5013087;28;20053;-61
2022/04/29 03:54:30;;;;;;;131.18;13.65;;;;;;;;;;5012867;28;20104;-61
2022/04/29 03:56:57;;;;;;;95.20;13.80;;;;;;;;;;5012779;28;20081;-61
2022/04/29 03:59:33;;;;;;;103.97;13.23;;;;;;;;;;5014067;28;20093;-60
2022/04/29 04:01:59;;;;;;;164.45;14.32;;;;;;;;;;5013000;28;20144;-61
2022/04/29 04:04:26;;;;;;;135.18;13.00;;;;;;;;;;5011741;28;20046;-55
2022/04/29 04:06:52;;;;;;;60.10;11.15;;;;;;;;;;5012725;28;20086;-57
2022/04/29 04:09:20;;;;;;;43.95;9.82;;;;;;;;;;5012656;28;20578;-61
2022/04/29 04:11:48;;;;;;;101.13;11.88;;;;;;;;;;5012761;28;20133;-61
2022/04/29 04:14:16;;;;;;;75.93;11.10;;;;;;;;;;5012849;28;20077;-60
2022/04/29 04:16:42;;;;;;;;;;;;;;;;;;5013214;28;20081;-60
2022/04/29 04:19:16;;;;;;;50.45;8.25;;;;;;;;;;5012773;28;20296;-61
2022/04/29 04:21:42;;;;;;;106.30;9.70;;;;;;;;;;5012751;28;20081;-60
2022/04/29 04:24:10;;;;;;;90.45;8.77;;;;;;;;;;5012822;28;20132;-55
2022/04/29 04:26:36;;;;;;;81.93;10.00;;;;;;;;;;5012667;28;20133;-53
2022/04/29 04:29:03;;;;;;;76.68;9.93;;;;;;;;;;5012806;28;20125;-47
2022/04/29 04:31:30;;;;;;;40.92;8.60;;;;;;;;;;5012611;28;20085;-44
2022/04/29 04:34:49;;;;;;;66.57;9.80;;;;;;;;;;5012619;28;20077;-44
2022/04/29 04:36:53;;;;;;;48.20;8.00;;;;;;;;;;5012330;28;20096;-46
2022/04/29 04:39:25;;;;;;;52.35;8.20;;;;;;;;;;5012555;28;20477;-44
2022/04/29 04:41:52;;;;;;;35.90;7.82;;;;;;;;;;5012455;28;20397;-49
2022/04/29 04:44:19;;;;;;;54.08;8.05;;;;;;;;;;5012411;28;20460;-60
2022/04/29 04:46:52;;;;;;;33.15;6.78;;;;;;;;;;5012414;28;20136;-55
2022/04/29 04:49:18;;;;;;;41.58;7.45;;;;;;;;;;5012463;28;20085;-59
2022/04/29 04:51:45;;;;;;;34.20;7.68;;;;;;;;;;5012425;28;20519;-56
2022/04/29 04:54:18;;;;;;;15.70;7.13;;;;;;;;;;5012521;28;20053;-58
2022/04/29 04:56:44;;;;;;;17.52;7.15;;;;;;;;;;5012300;28;20085;-58
2022/04/29 04:59:17;;;;;;;13.82;5.35;;;;;;;;;;4994622;28;20140;-54
2022/04/29 05:02:02;;;;;;;16.00;5.70;;;;;;;;;;5012383;28;20049;-58
2022/04/29 05:04:29;;;;;;;14.43;5.78;;;;;;;;;;5012306;28;20560;-57
2022/04/29 05:07:03;;;;;;;13.13;6.00;;;;;;;;;;5012410;28;20082;-58
2022/04/29 05:09:30;;;;;;;12.73;5.55;;;;;;;;;;5012339;28;20125;-52
2022/04/29 05:11:56;;;;;;;15.07;5.70;;;;;;;;;;5012258;28;20120;-52
2022/04/29 05:14:34;;;;;;;15.07;5.20;;;;;;;;;;5012256;28;20145;-58
2022/04/29 05:17:01;;;;;;;14.60;6.32;;;;;;;;;;5012167;28;20057;-58
2022/04/29 05:19:28;;;;;;;11.60;5.45;;;;;;;;;;5012304;28;20100;-45
2022/04/29 05:21:56;;;;;;;20.40;5.70;;;;;;;;;;5014562;28;20473;-50
2022/04/29 05:24:22;;;;;;;13.48;6.03;;;;;;;;;;5015736;28;20568;-49
2022/04/29 05:26:53;;;;;;;26.20;6.35;;;;;;;;;;5015778;28;20058;-48
2022/04/29 05:29:26;;;;;;;22.70;6.43;;;;;;;;;;5015723;28;20137;-52
2022/04/29 05:31:53;;;;;;;21.23;6.15;;;;;;;;;;5015602;28;20049;-50
2022/04/29 05:34:20;;;;;;;13.23;4.82;;;;;;;;;;5015640;28;20054;-53
2022/04/29 05:36:48;;;;;;;14.45;5.85;;;;;;;;;;5015322;28;20576;-50
2022/04/29 05:42:14;;;;;;;15.63;4.85;;;;;;;;;;5015532;28;20133;-52
2022/04/29 05:44:43;;;;;;;18.08;5.65;;;;;;;;;;5015195;28;20136;-45
2022/04/29 05:47:09;;;;;;;13.68;5.70;;;;;;;;;;5015329;28;20053;-45
2022/04/29 05:49:36;;;;;;;9.02;4.40;;;;;;;;;;5015235;28;20054;-45
2022/04/29 05:52:03;;;;;;;7.72;3.88;;;;;;;;;;5015247;28;20045;-49
2022/04/29 05:54:31;;;;;;;14.57;5.18;;;;;;;;;;5015236;28;20086;-46
2022/04/29 05:57:01;;;;;;;16.02;5.90;;;;;;;;;;5014943;28;20136;-60
2022/04/29 05:59:41;;;;;;;13.25;4.95;;;;;;;;;;5015926;28;20131;-56
2022/04/29 06:02:08;;;;;;;13.05;5.13;;;;;;;;;;5015052;28;20054;-57
2022/04/29 06:04:35;;;;;;;9.88;4.93;;;;;;;;;;5014916;28;20046;-57
2022/04/29 06:07:01;;;;;;;15.25;5.43;;;;;;;;;;5015051;28;20125;-58
2022/04/29 06:09:28;;;;;;;11.65;5.13;;;;;;;;;;5014945;28;20141;-56
2022/04/29 06:11:54;;;;;;;9.05;4.82;;;;;;;;;;5014816;28;20058;-57
2022/04/29 06:14:26;;;;;;;10.60;5.07;;;;;;;;;;5014938;28;20061;-52
2022/04/29 06:16:52;;;;;;;10.23;5.10;;;;;;;;;;5014850;28;20132;-58
2022/04/29 06:19:25;;;;;;;8.38;4.32;;;;;;;;;;5014584;28;20050;-57
2022/04/29 06:21:52;;;;;;;8.68;4.20;;;;;;;;;;5014714;28;20077;-57
2022/04/29 06:24:18;;;;;;;6.82;4.47;;;;;;;;;;5014387;28;20077;-58
2022/04/29 06:26:51;;;;;;;11.00;5.20;;;;;;;;;;5014457;28;20124;-57
2022/04/29 06:29:18;;;;;;;10.43;5.47;;;;;;;;;;5014587;28;20145;-58
2022/04/29 06:31:44;;;;;;;8.07;4.57;;;;;;;;;;5014513;28;20484;-51
2022/04/29 06:34:10;;;;;;;12.70;5.10;;;;;;;;;;5014564;28;20501;-59
2022/04/29 06:36:37;;;;;;;9.88;4.63;;;;;;;;;;5014318;28;20148;-60
2022/04/29 06:39:04;;;;;;;9.73;4.75;;;;;;;;;;5014304;28;20497;-60
2022/04/29 06:41:36;;;;;;;10.98;3.85;;;;;;;;;;5014302;28;20080;-59
2022/04/29 06:44:03;;;;;;;9.02;4.35;;;;;;;;;;5014327;28;20129;-59
2022/04/29 06:46:29;;;;;;;6.47;3.10;;;;;;;;;;5014388;28;20046;-60
2022/04/29 06:49:03;;;;;;;8.15;3.70;;;;;;;;;;5014178;28;20058;-60
2022/04/29 06:51:29;;;;;;;10.65;3.60;;;;;;;;;;5014220;28;20074;-60
2022/04/29 06:53:56;;;;;;;6.50;3.75;;;;;;;;;;5014129;28;20108;-45
2022/04/29 06:56:22;;;;;;;10.02;4.07;;;;;;;;;;5013858;28;20081;-46
2022/04/29 06:58:49;;;;;;;11.45;3.78;;;;;;;;;;5013810;28;20064;-48
2022/04/29 07:01:17;;;;;;;8.18;4.60;;;;;;;;;;5013927;28;20050;-47
2022/04/29 07:03:44;;;;;;;7.93;4.15;;;;;;;;;;5013922;28;20082;-45
2022/04/29 07:06:10;;;;;;;11.52;4.53;;;;;;;;;;5013668;28;20134;-46
2022/04/29 07:08:37;;;;;;;10.57;4.03;;;;;;;;;;5013823;28;20088;-57
2022/04/29 07:11:03;;;;;;;7.40;4.00;;;;;;;;;;5013664;28;20133;-45
2022/04/29 07:13:30;;;;;;;9.25;4.00;;;;;;;;;;5013787;28;20492;-49
2022/04/29 07:15:57;;;;;;;7.03;3.78;;;;;;;;;;5013854;28;20472;-50
2022/04/29 07:18:24;;;;;;;10.23;4.22;;;;;;;;;;5013474;28;20046;-48
2022/04/29 07:20:50;;;;;;;10.13;4.20;;;;;;;;;;5013617;28;20077;-52
2022/04/29 07:23:17;;;;;;;7.88;3.50;;;;;;;;;;5013536;28;20147;-52
2022/04/29 07:25:48;;;;;;;10.48;3.70;;;;;;;;;;5013573;28;20065;-50
2022/04/29 07:28:14;;;;;;;10.68;3.72;;;;;;;;;;5013498;28;20426;-58
2022/04/29 07:30:41;;;;;;;7.82;3.60;;;;;;;;;;5013482;28;20145;-60
2022/04/29 07:33:08;;;;;;;9.87;3.90;;;;;;;;;;5013434;28;20053;-59
2022/04/29 07:43:49;;;;;;;8.75;3.63;;;;;;;;;;5012713;28;20461;-60
2022/04/29 07:46:16;;;;;;;8.15;3.67;;;;;;;;;;5013281;28;20532;-45
2022/04/29 07:48:44;;;;;;;10.88;3.95;;;;;;;;;;5013062;28;20058;-50
2022/04/29 07:51:10;;;;;;;7.93;3.25;;;;;;;;;;5012957;28;20096;-51
2022/04/29 07:53:37;;;;;;;8.15;2.85;;;;;;;;;;5013120;28;20046;-45
2022/04/29 07:56:03;;;;;;;9.43;4.00;;;;;;;;;;5013054;28;20149;-48
2022/04/29 07:58:30;;;;;;;10.45;2.90;;;;;;;;;;5012681;28;20085;-47
2022/04/29 08:00:57;;;;;;;5.03;3.20;;;;;;;;;;4995432;28;20129;-50
2022/04/29 08:03:33;;;;;;;6.63;3.33;;;;;;;;;;5013068;28;20057;-51
2022/04/29 08:06:00;;;;;;;6.37;3.30;;;;;;;;;;5012985;28;20053;-58
2022/04/29 08:08:27;;;;;;;7.03;3.53;;;;;;;;;;5012911;28;20054;-52
2022/04/29 08:10:53;;;;;;;5.10;3.28;;;;;;;;;;5012718;28;20088;-53
2022/04/29 08:13:20;;;;;;;6.15;3.60;;;;;;;;;;5012951;28;20076;-48
2022/04/29 08:15:49;;;;;;;8.30;3.55;;;;;;;;;;5012811;28;20050;-52
2022/04/29 08:18:16;;;;;;;6.95;3.75;;;;;;;;;;5012789;28;20050;-45
2022/04/29 08:20:43;;;;;;;7.45;3.58;;;;;;;;;;5012857;28;20050;-46
2022/04/29 08:23:10;;;;;;;9.20;4.00;;;;;;;;;;5012920;28;20183;-50
2022/04/29 08:25:37;;;;;;;7.88;3.03;;;;;;;;;;5012649;28;20323;-57
2022/04/29 08:28:04;;;;;;;11.18;3.78;;;;;;;;;;5012670;28;20485;-57
2022/04/29 08:30:31;;;;;;;7.35;3.58;;;;;;;;;;5012701;28;20109;-57
2022/04/29 08:32:59;;;;;;;7.57;4.13;;;;;;;;;;5012676;28;20141;-58
2022/04/29 08:35:26;;;;;;;7.18;3.55;;;;;;;;;;5012705;28;20480;-56
2022/04/29 08:37:59;;;;;;;8.40;3.40;;;;;;;;;;5012531;28;20500;-57
2022/04/29 08:40:27;;;;;;;6.63;3.20;;;;;;;;;;5012763;28;20133;-59
2022/04/29 08:42:55;;;;;;;8.15;3.75;;;;;;;;;;5012421;28;20107;-57
2022/04/29 08:45:22;;;;;;;9.90;4.03;;;;;;;;;;5012636;28;20128;-56
2022/04/29 08:47:48;;;;;;;12.65;3.90;;;;;;;;;;5012615;28;20111;-55
2022/04/29 08:50:19;;;;;;;8.35;3.40;;;;;;;;;;5012515;28;20136;-54
2022/04/29 08:52:46;;;;;;;9.18;3.47;;;;;;;;;;5012512;28;20060;-50
2022/04/29 09:00:44;;;;;;;10.85;3.70;;;;;;;;;;5016116;28;20050;-45
2022/04/29 09:03:18;;;;;;;10.07;3.30;;;;;;;;;;5016225;28;20046;-45
2022/04/29 09:05:46;;;;;;;9.23;3.40;;;;;;;;;;5016045;28;20050;-46
2022/04/29 09:08:14;;;;;;;8.85;3.88;;;;;;;;;;5016164;28;20046;-46
2022/04/29 09:10:40;;;;;;;;;;;;;;;;;;5016461;28;20497;-46
2022/04/29 09:13:14;;;;;;;7.65;3.47;;;;;;;;;;5016073;28;19975;-50
2022/04/29 09:16:13;;;;;;;7.45;3.13;;;;;;;;;;5015584;28;20501;-46
2022/04/29 09:18:47;;;;;;;10.38;3.47;;;;;;;;;;4983102;28;20401;-46
2022/04/29 09:21:13;;;;;;;9.15;3.60;;;;;;;;;;5015664;28;20046;-45
2022/04/29 09:23:40;;;;;;;10.32;3.63;;;;;;;;;;5015777;28;20085;-46
2022/04/29 09:26:07;;;;;;;7.38;3.10;;;;;;;;;;5015838;28;20081;-45
2022/04/29 09:28:40;;;;;;;8.38;3.28;;;;;;;;;;5015509;28;20049;-45
2022/04/29 09:31:07;;;;;;;6.38;2.80;;;;;;;;;;5015782;28;20391;-45
2022/04/29 09:33:35;;;;;;;11.40;3.65;;;;;;;;;;5015560;28;20053;-47
2022/04/29 09:36:25;;;;;;;8.18;3.47;;;;;;;;;;5015671;28;20148;-49
2022/04/29 09:41:54;;;;;;;8.00;3.22;;;;;;;;;;5015275;28;20105;-49
2022/04/29 09:44:27;;;;;;;6.70;2.70;;;;;;;;;;5015306;28;20136;-50
2022/04/29 09:46:54;;;;;;;9.35;3.30;;;;;;;;;;4997923;28;20080;-45
2022/04/29 09:49:21;;;;;;;9.48;3.10;;;;;;;;;;5015331;28;20473;-46
2022/04/29 09:51:48;;;;;;;6.63;3.10;;;;;;;;;;5015310;28;20079;-49
2022/04/29 09:54:25;;;;;;;8.80;3.28;;;;;;;;;;5015224;28;20077;-50
2022/04/29 09:57:11;;;;;;;8.85;3.17;;;;;;;;;;5015207;28;20084;-58
2022/04/29 09:59:38;;;;;;;12.00;2.97;;;;;;;;;;5015028;28;20057;-58
2022/04/29 10:02:06;;;;;;;6.35;3.22;;;;;;;;;;5015112;28;20089;-59
2022/04/29 10:04:36;;;;;;;10.18;3.42;;;;;;;;;;5015091;28;20049;-59
2022/04/29 10:07:08;;;;;;;6.20;2.60;;;;;;;;;;5014728;28;20394;-58
2022/04/29 10:09:35;;;;;;;6.65;3.33;;;;;;;;;;5015059;28;20054;-54
2022/04/29 10:12:16;;;;;;;9.65;3.53;;;;;;;;;;5014905;28;20081;-51
2022/04/29 10:14:43;;;;;;;9.57;3.30;;;;;;;;;;5015029;28;20124;-53
2022/04/29 10:22:46;;;;;;;4.82;2.42;;;;;;;;;;5014843;28;20084;-54
2022/04/29 10:25:13;;;;;;;7.65;2.60;;;;;;;;;;5014591;28;20524;-56
2022/04/29 10:27:39;;;;;;;4.88;2.30;;;;;;;;;;5014551;28;20564;-55
2022/04/29 10:30:07;;;;;;;8.50;3.00;;;;;;;;;;5014556;28;20156;-55
2022/04/29 10:32:52;;;;;;;5.15;2.67;;;;;;;;;;5014459;28;20093;-51
2022/04/29 10:35:43;;;;;;;6.80;2.38;;;;;;;;;;5014535;28;20077;-56
2022/04/29 10:38:26;;;;;;;9.45;2.55;;;;;;;;;;5014250;28;20137;-58
2022/04/29 10:41:15;;;;;;;5.50;2.22;;;;;;;;;;5014461;28;20078;-58
2022/04/29 10:43:57;;;;;;;4.97;2.28;;;;;;;;;;5014277;28;20132;-57
2022/04/29 10:46:36;;;;;;;3.38;1.83;;;;;;;;;;5014023;28;20046;-57
2022/04/29 10:49:18;;;;;;;7.07;2.75;;;;;;;;;;5014269;28;20045;-59
2022/04/29 10:51:51;;;;;;;9.48;2.47;;;;;;;;;;5014086;28;20112;-51
2022/04/29 10:54:33;;;;;;;4.80;2.40;;;;;;;;;;5014165;28;20096;-56
2022/04/29 10:57:14;;;;;;;4.10;2.20;;;;;;;;;;5013922;28;20489;-53
2022/04/29 10:59:50;;;;;;;6.47;2.60;;;;;;;;;;5014777;28;20058;-56
2022/04/29 11:02:30;;;;;;;5.82;2.53;;;;;;;;;;5013952;28;20054;-56
2022/04/29 11:04:57;;;;;;;2.85;2.10;;;;;;;;;;5013829;28;20504;-57
2022/04/29 11:07:43;;;;;;;5.82;2.40;;;;;;;;;;5013960;28;20053;-58
2022/04/29 11:10:20;;;;;;;4.70;2.00;;;;;;;;;;5013836;28;20050;-60
2022/04/29 11:12:54;;;;;;;2.85;1.58;;;;;;;;;;5013659;28;20108;-46
2022/04/29 11:15:23;;;;;;;8.80;2.00;;;;;;;;;;5013837;28;20053;-45
2022/04/29 11:17:49;;;;;;;5.40;1.90;;;;;;;;;;5013255;28;20465;-45
2022/04/29 11:20:17;;;;;;;5.15;2.35;;;;;;;;;;5013336;28;20081;-45
2022/04/29 11:25:54;;;;;;;6.22;1.80;;;;;;;;;;5013662;28;20082;-55
2022/04/29 11:28:21;;;;;;;4.90;1.88;;;;;;;;;;5013538;28;20079;-58
2022/04/29 11:30:49;;;;;;;3.25;1.92;;;;;;;;;;5013349;28;20090;-50
2022/04/29 11:33:23;;;;;;;8.02;1.75;;;;;;;;;;5013437;28;20145;-46
2022/04/29 11:35:51;;;;;;;3.88;2.13;;;;;;;;;;5013281;28;20042;-49
2022/04/29 11:38:18;;;;;;;4.32;2.10;;;;;;;;;;5013305;28;20050;-48
2022/04/29 11:40:44;;;;;;;4.43;2.35;;;;;;;;;;5013325;28;20050;-48
2022/04/29 11:43:11;;;;;;;4.82;1.80;;;;;;;;;;5013304;28;20084;-47
2022/04/29 11:45:38;;;;;;;3.13;1.70;;;;;;;;;;5013384;28;20053;-59
2022/04/29 11:48:05;;;;;;;5.90;1.70;;;;;;;;;;5013336;28;20156;-59
2022/04/29 11:50:35;;;;;;;4.88;1.95;;;;;;;;;;5013158;28;20054;-59
2022/04/29 11:53:05;;;;;;;6.00;2.35;;;;;;;;;;5013190;28;20148;-58
2022/04/29 11:55:31;;;;;;;3.83;1.50;;;;;;;;;;5013129;28;20050;-56
2022/04/29 11:57:58;;;;;;;2.85;1.60;;;;;;;;;;5012812;28;20077;-57
2022/04/29 12:00:29;;;;;;;7.18;1.70;;;;;;;;;;5013039;28;20056;-58
2022/04/29 12:02:56;;;;;;;4.82;1.90;;;;;;;;;;5013067;28;20046;-58
2022/04/29 12:05:24;;;;;;;3.22;1.77;;;;;;;;;;5013022;28;20064;-47
2022/04/29 12:07:51;;;;;;;2.63;1.70;;;;;;;;;;5012809;28;20508;-60
2022/04/29 12:10:18;;;;;;;3.38;1.83;;;;;;;;;;5012896;28;20088;-60
2022/04/29 12:12:48;;;;;;;;;;;;;;;;;;5013335;28;20053;-60
2022/04/29 12:15:18;;;;;;;3.53;1.50;;;;;;;;;;5012787;28;19967;-60
2022/04/29 12:17:44;;;;;;;5.15;1.60;;;;;;;;;;5012774;28;20141;-60
2022/04/29 12:20:18;;;;;;;4.90;1.52;;;;;;;;;;5012882;28;20081;-60
2022/04/29 12:22:47;;;;;;;4.15;1.90;;;;;;;;;;5012715;28;20402;-60
2022/04/29 12:25:18;;;;;;;3.20;1.38;;;;;;;;;;5012726;28;20050;-49
2022/04/29 12:27:44;;;;;;;2.47;1.58;;;;;;;;;;5012667;28;20062;-47
2022/04/29 12:36:09;;;;;;;7.45;1.50;;;;;;;;;;5016603;28;20077;-47
2022/04/29 12:38:36;;;;;;;2.88;1.50;;;;;;;;;;5016754;28;20137;-50
2022/04/29 12:41:15;;;;;;;2.92;1.40;;;;;;;;;;5016763;28;20078;-59
2022/04/29 12:43:42;;;;;;;4.30;1.63;;;;;;;;;;5016488;28;20056;-50
2022/04/29 12:46:14;;;;;;;1.75;1.30;;;;;;;;;;5016475;28;20080;-47
2022/04/29 12:48:47;;;;;;;2.63;1.80;;;;;;;;;;5016514;28;20053;-46
2022/04/29 12:51:24;;;;;;;5.70;1.77;;;;;;;;;;5016554;28;20092;-53
2022/04/29 12:53:54;;;;;;;4.18;1.38;;;;;;;;;;5016177;28;20564;-47
2022/04/29 12:56:47;;;;;;;4.97;1.65;;;;;;;;;;5016159;28;20133;-51
2022/04/29 12:59:21;;;;;;;3.72;1.55;;;;;;;;;;5013298;28;20064;-54
2022/04/29 13:01:48;;;;;;;3.17;1.40;;;;;;;;;;5016338;28;20088;-47
2022/04/29 13:04:15;;;;;;;5.22;1.55;;;;;;;;;;5016164;28;20489;-49
2022/04/29 13:06:41;;;;;;;3.42;1.38;;;;;;;;;;5016171;28;20137;-55
2022/04/29 13:09:08;;;;;;;3.28;1.70;;;;;;;;;;5016119;28;20077;-49
2022/04/29 13:11:34;;;;;;;5.97;1.70;;;;;;;;;;5015957;28;20081;-50
2022/04/29 13:14:01;;;;;;;5.75;1.58;;;;;;;;;;5016015;28;20100;-52
2022/04/29 13:16:27;;;;;;;4.63;1.77;;;;;;;;;;5015878;28;20100;-58
2022/04/29 13:18:54;;;;;;;4.60;1.43;;;;;;;;;;5015842;28;20054;-53
2022/04/29 13:21:21;;;;;;;5.15;1.38;;;;;;;;;;5015803;28;20316;-58
2022/04/29 13:23:47;;;;;;;3.30;1.50;;;;;;;;;;5015728;28;20138;-57
2022/04/29 13:26:14;;;;;;;3.65;1.20;;;;;;;;;;5015839;28;20050;-65
2022/04/29 13:28:42;;;;;;;6.78;1.48;;;;;;;;;;5015821;28;20073;-56
2022/04/29 13:31:09;;;;;;;4.38;1.20;;;;;;;;;;5015628;28;20130;-57
2022/04/29 13:33:35;;;;;;;4.70;1.17;;;;;;;;;;5015537;28;20092;-57
2022/04/29 13:36:02;;;;;;;2.33;1.10;;;;;;;;;;5015613;28;20085;-54
2022/04/29 13:38:29;;;;;;;3.60;1.00;;;;;;;;;;5015664;28;20085;-57
2022/04/29 13:40:56;;;;;;;4.00;1.05;;;;;;;;;;5015084;28;20100;-58
2022/04/29 13:43:23;;;;;;;2.13;1.02;;;;;;;;;;5015061;28;20137;-59
2022/04/29 13:45:50;;;;;;;1.67;0.90;;;;;;;;;;5015285;28;20069;-58
2022/04/29 13:48:16;;;;;;;1.47;0.90;;;;;;;;;;5015326;28;20133;-59
2022/04/29 13:50:43;;;;;;;2.25;1.02;;;;;;;;;;5015229;28;20108;-58
2022/04/29 13:53:11;;;;;;;4.03;1.20;;;;;;;;;;5015143;28;20137;-58
2022/04/29 13:55:40;;;;;;;2.22;0.88;;;;;;;;;;5015152;28;20050;-58
2022/04/29 13:58:07;;;;;;;3.95;0.80;;;;;;;;;;5014745;28;20046;-49
2022/04/29 14:00:34;;;;;;;2.85;0.98;;;;;;;;;;5015025;28;20571;-49
2022/04/29 14:03:01;;;;;;;3.78;1.25;;;;;;;;;;5014985;28;20053;-50
2022/04/29 14:05:29;;;;;;;3.25;0.95;;;;;;;;;;5014739;28;20509;-49
2022/04/29 14:07:56;;;;;;;6.35;0.80;;;;;;;;;;5014892;28;20088;-50
2022/04/29 14:10:23;;;;;;;1.63;0.80;;;;;;;;;;5014910;28;20470;-52
2022/04/29 14:12:50;;;;;;;1.35;0.77;;;;;;;;;;5014629;28;20092;-45
2022/04/29 14:15:16;;;;;;;2.13;0.80;;;;;;;;;;5014825;28;20085;-45
2022/04/29 14:17:44;;;;;;;1.90;0.90;;;;;;;;;;5014758;28;20133;-46
2022/04/29 14:20:11;;;;;;;1.25;0.70;;;;;;;;;;5014512;28;20057;-43
2022/04/29 14:22:40;;;;;;;1.75;0.60;;;;;;;;;;5014523;28;20045;-43
2022/04/29 14:25:08;;;;;;;2.95;0.80;;;;;;;;;;5014384;28;20069;-45
2022/04/29 14:27:34;;;;;;;1.88;0.90;;;;;;;;;;5014381;28;20494;-43
2022/04/29 14:30:01;;;;;;;1.83;0.57;;;;;;;;;;5014404;28;20505;-58
2022/04/29 14:32:27;;;;;;;1.40;0.80;;;;;;;;;;5014526;28;20931;-45
2022/04/29 14:34:55;;;;;;;6.47;1.13;;;;;;;;;;5014358;28;20088;-45
2022/04/29 14:37:26;;;;;;;1.55;0.80;;;;;;;;;;5014272;28;20070;-45
2022/04/29 14:39:53;;;;;;;4.10;0.80;;;;;;;;;;5014349;28;20495;-49
2022/04/29 14:42:20;;;;;;;5.85;1.17;;;;;;;;;;5014184;28;20073;-46
2022/04/29 14:44:47;;;;;;;4.07;0.90;;;;;;;;;;5014060;28;20134;-52
2022/04/29 14:47:13;;;;;;;1.73;1.15;;;;;;;;;;5014114;28;20104;-45
2022/04/29 14:49:40;;;;;;;1.70;0.82;;;;;;;;;;5014263;28;20133;-55
2022/04/29 14:52:08;;;;;;;2.60;1.00;;;;;;;;;;5014095;28;20041;-53
2022/04/29 14:54:36;;;;;;;4.68;1.15;;;;;;;;;;5012812;28;20050;-49
2022/04/29 14:57:03;;;;;;;4.28;1.20;;;;;;;;;;5013835;28;20046;-52
2022/04/29 14:59:30;;;;;;;2.30;0.60;;;;;;;;;;5013699;28;20140;-45
2022/04/29 15:01:59;;;;;;;0.90;0.77;;;;;;;;;;5013840;28;20149;-47
2022/04/29 15:04:26;;;;;;;1.48;1.13;;;;;;;;;;5013792;28;20284;-48
2022/04/29 15:06:52;;;;;;;2.80;0.88;;;;;;;;;;5013590;28;20054;-49
2022/04/29 15:17:55;;;;;;;4.22;1.00;;;;;;;;;;5013518;28;20057;-50
2022/04/29 15:20:22;;;;;;;1.27;0.63;;;;;;;;;;5013504;28;20128;-49
2022/04/29 15:22:48;;;;;;;1.70;0.80;;;;;;;;;;5013363;28;20077;-53
2022/04/29 15:25:17;;;;;;;3.80;1.02;;;;;;;;;;5013573;28;20077;-56
2022/04/29 15:27:48;;;;;;;1.88;1.00;;;;;;;;;;5013494;28;20507;-57
2022/04/29 15:30:15;;;;;;;3.08;0.70;;;;;;;;;;5013374;28;20048;-44
2022/04/29 15:32:41;;;;;;;5.17;0.80;;;;;;;;;;5013344;28;20069;-43
2022/04/29 15:35:08;;;;;;;4.57;0.80;;;;;;;;;;5013185;28;20536;-47